createdAt,value
2018-08-09T00:00:00.085Z,802.8
2018-08-09T00:00:04.395Z,802.86
2018-08-09T00:00:08.597Z,802.85
2018-08-09T00:00:12.801Z,802.85
2018-08-09T00:00:16.993Z,802.82
2018-08-09T00:00:21.082Z,802.87
2018-08-09T00:00:25.395Z,802.81
2018-08-09T00:00:29.482Z,802.82
2018-08-09T00:00:36.781Z,802.83
2018-08-09T00:00:41.091Z,802.84
2018-08-09T00:00:45.291Z,802.83
2018-08-09T00:00:49.503Z,802.81
2018-08-09T00:00:53.728Z,802.82
2018-08-09T00:00:57.721Z,802.81
2018-08-09T00:01:01.914Z,802.84
2018-08-09T00:01:06.118Z,802.83
2018-08-09T00:01:10.437Z,802.84
2018-08-09T00:01:14.742Z,802.83
2018-08-09T00:01:19.049Z,802.83
2018-08-09T00:01:23.250Z,802.85
2018-08-09T00:01:27.661Z,802.86
2018-08-09T00:01:32.118Z,802.83
2018-08-09T00:01:36.716Z,802.85
2018-08-09T00:01:41.611Z,802.8
2018-08-09T00:01:45.757Z,802.77
2018-08-09T00:01:49.957Z,802.79
2018-08-09T00:01:54.164Z,802.83
2018-08-09T00:01:58.155Z,802.82
2018-08-09T00:02:02.477Z,802.84
2018-08-09T00:02:06.570Z,802.83
2018-08-09T00:02:10.780Z,802.77
2018-08-09T00:02:14.985Z,802.83
2018-08-09T00:02:19.181Z,802.83
2018-08-09T00:02:23.377Z,802.83
2018-08-09T00:02:27.581Z,802.81
2018-08-09T00:02:31.565Z,802.83
2018-08-09T00:02:35.864Z,802.82
2018-08-09T00:02:39.845Z,802.78
2018-08-09T00:02:43.939Z,802.81
2018-08-09T00:02:48.238Z,802.81
2018-08-09T00:02:52.436Z,802.86
2018-08-09T00:02:56.748Z,802.87
2018-08-09T00:03:00.947Z,802.84
2018-08-09T00:03:05.034Z,802.87
2018-08-09T00:03:09.233Z,802.84
2018-08-09T00:03:13.435Z,802.77
2018-08-09T00:03:17.632Z,802.86
2018-08-09T00:03:21.723Z,802.86
2018-08-09T00:03:26.033Z,802.84
2018-08-09T00:03:30.338Z,802.83
2018-08-09T00:03:34.639Z,802.88
2018-08-09T00:03:38.834Z,802.85
2018-08-09T00:03:43.133Z,802.87
2018-08-09T00:03:47.337Z,802.87
2018-08-09T00:03:51.530Z,802.89
2018-08-09T00:03:55.517Z,802.88
2018-08-09T00:03:59.710Z,802.84
2018-08-09T00:04:03.744Z,802.84
2018-08-09T00:04:08.046Z,802.87
2018-08-09T00:04:12.351Z,802.87
2018-08-09T00:04:16.660Z,802.87
2018-08-09T00:04:20.991Z,802.85
2018-08-09T00:04:24.887Z,802.85
2018-08-09T00:04:28.977Z,802.86
2018-08-09T00:04:33.291Z,802.87
2018-08-09T00:04:37.480Z,802.86
2018-08-09T00:04:41.782Z,802.87
2018-08-09T00:04:46.087Z,802.85
2018-08-09T00:04:50.286Z,802.9
2018-08-09T00:04:54.483Z,802.88
2018-08-09T00:04:58.680Z,802.88
2018-08-09T00:05:02.892Z,802.83
2018-08-09T00:05:06.889Z,802.85
2018-08-09T00:05:11.200Z,802.88
2018-08-09T00:05:15.402Z,802.9
2018-08-09T00:05:27.373Z,802.88
2018-08-09T00:05:31.696Z,802.89
2018-08-09T00:05:36.007Z,802.93
2018-08-09T00:05:40.307Z,802.91
2018-08-09T00:05:44.511Z,802.89
2018-08-09T00:05:48.805Z,802.91
2018-08-09T00:05:52.895Z,802.88
2018-08-09T00:05:57.093Z,802.9
2018-08-09T00:06:01.294Z,802.89
2018-08-09T00:06:05.439Z,802.9
2018-08-09T00:06:09.641Z,802.9
2018-08-09T00:06:13.728Z,802.9
2018-08-09T00:06:17.928Z,802.92
2018-08-09T00:06:22.127Z,802.88
2018-08-09T00:06:26.323Z,802.92
2018-08-09T00:06:30.526Z,802.9
2018-08-09T00:06:34.720Z,802.92
2018-08-09T00:06:38.909Z,802.93
2018-08-09T00:06:43.104Z,802.86
2018-08-09T00:06:47.300Z,802.9
2018-08-09T00:06:51.403Z,802.88
2018-08-09T00:06:55.398Z,802.92
2018-08-09T00:06:59.707Z,802.91
2018-08-09T00:07:03.794Z,802.89
2018-08-09T00:07:08.095Z,802.9
2018-08-09T00:07:12.391Z,802.94
2018-08-09T00:07:24.327Z,802.87
2018-08-09T00:07:58.192Z,802.92
2018-08-09T00:08:02.285Z,802.91
2018-08-09T00:08:06.487Z,802.91
2018-08-09T00:08:10.728Z,802.89
2018-08-09T00:08:15.028Z,802.87
2018-08-09T00:08:19.331Z,802.94
2018-08-09T00:08:23.523Z,802.89
2018-08-09T00:08:27.611Z,802.9
2018-08-09T00:08:31.590Z,802.91
2018-08-09T00:08:35.887Z,802.84
2018-08-09T00:08:40.086Z,802.92
2018-08-09T00:08:44.177Z,802.9
2018-08-09T00:08:48.482Z,802.89
2018-08-09T00:08:52.679Z,802.88
2018-08-09T00:08:56.875Z,802.92
2018-08-09T00:09:01.075Z,802.92
2018-08-09T00:09:05.274Z,802.93
2018-08-09T00:09:09.634Z,802.91
2018-08-09T00:09:13.614Z,802.9
2018-08-09T00:09:17.600Z,802.9
2018-08-09T00:09:21.791Z,802.91
2018-08-09T00:09:25.979Z,802.93
2018-08-09T00:09:30.204Z,802.91
2018-08-09T00:09:34.194Z,802.89
2018-08-09T00:09:38.513Z,802.91
2018-08-09T00:09:42.705Z,802.91
2018-08-09T00:09:46.791Z,802.93
2018-08-09T00:09:51.093Z,802.9
2018-08-09T00:09:55.289Z,802.91
2018-08-09T00:09:59.487Z,802.86
2018-08-09T00:10:03.682Z,802.84
2018-08-09T00:10:07.991Z,802.93
2018-08-09T00:10:12.295Z,802.93
2018-08-09T00:10:16.595Z,802.87
2018-08-09T00:10:20.796Z,802.91
2018-08-09T00:10:24.999Z,802.93
2018-08-09T00:10:32.721Z,802.9
2018-08-09T00:10:36.817Z,802.9
2018-08-09T00:10:41.015Z,802.91
2018-08-09T00:10:45.119Z,802.89
2018-08-09T00:10:49.209Z,802.94
2018-08-09T00:10:53.504Z,802.91
2018-08-09T00:10:57.480Z,802.89
2018-08-09T00:11:01.790Z,802.9
2018-08-09T00:11:06.137Z,802.86
2018-08-09T00:11:10.435Z,802.89
2018-08-09T00:11:14.519Z,802.89
2018-08-09T00:11:18.715Z,802.88
2018-08-09T00:11:22.912Z,802.9
2018-08-09T00:11:27.102Z,802.9
2018-08-09T00:11:31.293Z,802.89
2018-08-09T00:11:35.482Z,802.89
2018-08-09T00:11:39.569Z,802.9
2018-08-09T00:11:43.872Z,802.87
2018-08-09T00:11:48.171Z,802.88
2018-08-09T00:11:52.153Z,802.88
2018-08-09T00:11:56.252Z,802.88
2018-08-09T00:12:00.461Z,802.84
2018-08-09T00:12:04.657Z,802.88
2018-08-09T00:12:08.963Z,802.87
2018-08-09T00:12:26.282Z,802.85
2018-08-09T00:12:30.581Z,802.82
2018-08-09T00:12:34.772Z,802.84
2018-08-09T00:12:38.751Z,802.85
2018-08-09T00:12:42.837Z,802.84
2018-08-09T00:12:47.148Z,802.79
2018-08-09T00:12:51.447Z,802.83
2018-08-09T00:12:55.637Z,802.8
2018-08-09T00:12:59.828Z,802.81
2018-08-09T00:13:04.173Z,802.81
2018-08-09T00:13:08.365Z,802.77
2018-08-09T00:13:12.672Z,802.8
2018-08-09T00:13:16.760Z,802.78
2018-08-09T00:13:20.850Z,802.79
2018-08-09T00:13:25.149Z,802.8
2018-08-09T00:13:29.351Z,802.72
2018-08-09T00:13:33.553Z,802.77
2018-08-09T00:13:37.755Z,802.76
2018-08-09T00:13:41.735Z,802.71
2018-08-09T00:13:45.941Z,802.74
2018-08-09T00:13:50.034Z,802.74
2018-08-09T00:13:54.233Z,802.75
2018-08-09T00:13:58.434Z,802.72
2018-08-09T00:14:02.539Z,802.7
2018-08-09T00:14:06.731Z,802.72
2018-08-09T00:14:10.930Z,802.7
2018-08-09T00:14:15.015Z,802.68
2018-08-09T00:14:18.994Z,802.69
2018-08-09T00:14:23.082Z,802.69
2018-08-09T00:14:27.186Z,802.7
2018-08-09T00:14:31.500Z,802.66
2018-08-09T00:14:35.797Z,802.65
2018-08-09T00:14:39.989Z,802.62
2018-08-09T00:14:44.195Z,802.63
2018-08-09T00:14:48.504Z,802.62
2018-08-09T00:14:52.814Z,802.63
2018-08-09T00:14:57.008Z,802.55
2018-08-09T00:15:01.094Z,802.59
2018-08-09T00:15:04.976Z,802.61
2018-08-09T00:15:09.068Z,802.57
2018-08-09T00:15:14.886Z,802.56
2018-08-09T00:15:18.971Z,802.56
2018-08-09T00:15:23.060Z,802.54
2018-08-09T00:15:27.251Z,802.53
2018-08-09T00:15:31.554Z,802.52
2018-08-09T00:15:35.861Z,802.43
2018-08-09T00:15:40.059Z,802.5
2018-08-09T00:15:44.265Z,802.48
2018-08-09T00:15:48.456Z,802.43
2018-08-09T00:15:52.546Z,802.42
2018-08-09T00:15:56.844Z,802.46
2018-08-09T00:16:01.032Z,802.46
2018-08-09T00:16:05.228Z,802.42
2018-08-09T00:16:09.423Z,802.43
2018-08-09T00:16:13.728Z,802.43
2018-08-09T00:16:17.941Z,802.42
2018-08-09T00:16:22.134Z,802.38
2018-08-09T00:16:26.331Z,802.4
2018-08-09T00:16:30.528Z,802.4
2018-08-09T00:16:34.613Z,802.38
2018-08-09T00:16:38.820Z,802.35
2018-08-09T00:16:43.125Z,802.31
2018-08-09T00:16:47.212Z,802.39
2018-08-09T00:16:51.415Z,802.36
2018-08-09T00:16:55.398Z,802.29
2018-08-09T00:16:59.493Z,802.33
2018-08-09T00:17:03.476Z,802.36
2018-08-09T00:17:07.464Z,802.37
2018-08-09T00:17:11.653Z,802.36
2018-08-09T00:17:15.949Z,802.27
2018-08-09T00:17:20.145Z,802.27
2018-08-09T00:17:24.443Z,802.34
2018-08-09T00:17:28.752Z,802.27
2018-08-09T00:17:32.738Z,802.32
2018-08-09T00:17:36.820Z,802.28
2018-08-09T00:17:40.910Z,802.3
2018-08-09T00:17:45.107Z,802.29
2018-08-09T00:17:49.313Z,802.26
2018-08-09T00:17:53.616Z,802.28
2018-08-09T00:17:57.712Z,802.27
2018-08-09T00:18:01.911Z,802.27
2018-08-09T00:18:05.998Z,802.27
2018-08-09T00:18:10.197Z,802.24
2018-08-09T00:18:14.394Z,802.2
2018-08-09T00:18:18.696Z,802.24
2018-08-09T00:18:22.786Z,802.25
2018-08-09T00:18:26.979Z,802.22
2018-08-09T00:18:31.281Z,802.24
2018-08-09T00:18:35.477Z,802.25
2018-08-09T00:18:39.672Z,802.22
2018-08-09T00:18:43.986Z,802.22
2018-08-09T00:18:48.296Z,802.18
2018-08-09T00:18:52.384Z,802.22
2018-08-09T00:18:56.606Z,802.2
2018-08-09T00:19:00.837Z,802.2
2018-08-09T00:19:04.822Z,802.2
2018-08-09T00:19:08.915Z,802.16
2018-08-09T00:19:13.230Z,802.2
2018-08-09T00:19:17.526Z,802.18
2018-08-09T00:19:21.772Z,802.19
2018-08-09T00:19:25.965Z,802.2
2018-08-09T00:19:30.050Z,802.18
2018-08-09T00:19:34.243Z,802.2
2018-08-09T00:19:38.434Z,802.19
2018-08-09T00:19:42.410Z,802.18
2018-08-09T00:19:46.601Z,802.18
2018-08-09T00:19:50.798Z,802.12
2018-08-09T00:19:54.998Z,802.14
2018-08-09T00:19:59.344Z,802.15
2018-08-09T00:20:03.343Z,802.19
2018-08-09T00:20:07.537Z,802.11
2018-08-09T00:20:11.736Z,802.16
2018-08-09T00:20:15.935Z,802.16
2018-08-09T00:20:20.125Z,802.13
2018-08-09T00:20:24.423Z,802.19
2018-08-09T00:20:28.612Z,802.14
2018-08-09T00:20:32.912Z,802.16
2018-08-09T00:20:37.208Z,802.14
2018-08-09T00:20:41.302Z,802.13
2018-08-09T00:20:45.294Z,802.1
2018-08-09T00:20:49.390Z,802.15
2018-08-09T00:20:53.689Z,802.12
2018-08-09T00:20:57.989Z,802.07
2018-08-09T00:21:02.313Z,802.12
2018-08-09T00:21:06.510Z,802.12
2018-08-09T00:21:10.608Z,802.15
2018-08-09T00:21:14.797Z,802.11
2018-08-09T00:21:18.895Z,802.13
2018-08-09T00:21:23.091Z,802.11
2018-08-09T00:21:27.286Z,802.13
2018-08-09T00:21:31.369Z,802.15
2018-08-09T00:21:35.669Z,802.11
2018-08-09T00:21:39.755Z,802.14
2018-08-09T00:21:43.845Z,802.11
2018-08-09T00:21:47.939Z,802.16
2018-08-09T00:21:52.032Z,802.14
2018-08-09T00:21:56.115Z,802.15
2018-08-09T00:22:00.310Z,802.16
2018-08-09T00:22:04.455Z,802.09
2018-08-09T00:22:08.655Z,802.08
2018-08-09T00:22:12.855Z,802.14
2018-08-09T00:22:17.051Z,802.1
2018-08-09T00:22:21.359Z,802.14
2018-08-09T00:22:25.658Z,802.13
2018-08-09T00:22:29.852Z,802.15
2018-08-09T00:22:34.156Z,802.16
2018-08-09T00:22:38.240Z,802.09
2018-08-09T00:22:42.435Z,802.1
2018-08-09T00:22:46.414Z,802.11
2018-08-09T00:22:50.655Z,802.14
2018-08-09T00:22:54.742Z,802.11
2018-08-09T00:22:59.036Z,802.11
2018-08-09T00:23:03.124Z,802.11
2018-08-09T00:23:07.368Z,802.11
2018-08-09T00:23:11.562Z,802.11
2018-08-09T00:23:15.757Z,802.15
2018-08-09T00:23:20.056Z,802.13
2018-08-09T00:23:24.246Z,802.13
2018-08-09T00:23:28.539Z,802.12
2018-08-09T00:23:32.627Z,802.12
2018-08-09T00:23:36.938Z,802.12
2018-08-09T00:23:41.313Z,802.16
2018-08-09T00:23:45.953Z,802.11
2018-08-09T00:23:50.539Z,802.13
2018-08-09T00:23:55.080Z,802.14
2018-08-09T00:23:59.861Z,802.15
2018-08-09T00:24:04.069Z,802.13
2018-08-09T00:24:08.261Z,802.18
2018-08-09T00:24:12.359Z,802.16
2018-08-09T00:24:16.568Z,802.15
2018-08-09T00:24:20.546Z,802.15
2018-08-09T00:24:24.678Z,802.17
2018-08-09T00:24:28.909Z,802.15
2018-08-09T00:24:32.999Z,802.18
2018-08-09T00:24:37.195Z,802.2
2018-08-09T00:24:41.394Z,802.21
2018-08-09T00:24:45.493Z,802.18
2018-08-09T00:24:49.632Z,802.2
2018-08-09T00:24:53.956Z,802.24
2018-08-09T00:24:57.951Z,802.18
2018-08-09T00:25:02.253Z,802.2
2018-08-09T00:25:06.339Z,802.19
2018-08-09T00:25:10.533Z,802.2
2018-08-09T00:25:14.839Z,802.19
2018-08-09T00:25:19.145Z,802.21
2018-08-09T00:25:23.450Z,802.21
2018-08-09T00:25:27.766Z,802.22
2018-08-09T00:25:31.962Z,802.21
2018-08-09T00:25:36.153Z,802.19
2018-08-09T00:25:40.451Z,802.22
2018-08-09T00:25:44.760Z,802.22
2018-08-09T00:25:48.955Z,802.24
2018-08-09T00:25:53.047Z,802.22
2018-08-09T00:25:57.343Z,802.17
2018-08-09T00:26:01.653Z,802.23
2018-08-09T00:26:05.633Z,802.2
2018-08-09T00:26:09.942Z,802.2
2018-08-09T00:26:14.244Z,802.2
2018-08-09T00:26:18.452Z,802.2
2018-08-09T00:26:22.544Z,802.27
2018-08-09T00:26:26.853Z,802.25
2018-08-09T00:26:31.057Z,802.24
2018-08-09T00:26:35.257Z,802.23
2018-08-09T00:26:39.345Z,802.24
2018-08-09T00:26:43.324Z,802.29
2018-08-09T00:26:47.303Z,802.25
2018-08-09T00:26:51.538Z,802.25
2018-08-09T00:26:55.518Z,802.23
2018-08-09T00:26:59.826Z,802.3
2018-08-09T00:27:03.924Z,802.27
2018-08-09T00:27:08.114Z,802.29
2018-08-09T00:27:12.309Z,802.26
2018-08-09T00:27:16.503Z,802.27
2018-08-09T00:27:20.653Z,802.23
2018-08-09T00:27:24.952Z,802.28
2018-08-09T00:27:29.265Z,802.27
2018-08-09T00:27:33.570Z,802.27
2018-08-09T00:27:37.659Z,802.29
2018-08-09T00:27:41.858Z,802.27
2018-08-09T00:27:46.159Z,802.25
2018-08-09T00:27:50.141Z,802.27
2018-08-09T00:27:54.340Z,802.22
2018-08-09T00:27:58.542Z,802.31
2018-08-09T00:28:02.842Z,802.3
2018-08-09T00:28:07.155Z,802.3
2018-08-09T00:28:11.455Z,802.27
2018-08-09T00:28:15.752Z,802.34
2018-08-09T00:28:19.993Z,802.33
2018-08-09T00:28:24.199Z,802.35
2018-08-09T00:28:28.290Z,802.36
2018-08-09T00:28:32.623Z,802.37
2018-08-09T00:28:36.707Z,802.32
2018-08-09T00:28:40.909Z,802.33
2018-08-09T00:28:44.886Z,802.36
2018-08-09T00:28:49.189Z,802.33
2018-08-09T00:28:53.400Z,802.37
2018-08-09T00:28:57.495Z,802.37
2018-08-09T00:29:01.906Z,802.38
2018-08-09T00:29:05.885Z,802.39
2018-08-09T00:29:10.189Z,802.39
2018-08-09T00:29:14.499Z,802.38
2018-08-09T00:29:18.800Z,802.37
2018-08-09T00:29:24.616Z,802.36
2018-08-09T00:29:28.813Z,802.41
2018-08-09T00:29:33.011Z,802.38
2018-08-09T00:29:37.315Z,802.4
2018-08-09T00:29:41.518Z,802.42
2018-08-09T00:29:45.713Z,802.44
2018-08-09T00:29:49.909Z,802.41
2018-08-09T00:29:54.001Z,802.41
2018-08-09T00:29:58.194Z,802.41
2018-08-09T00:30:02.185Z,802.39
2018-08-09T00:30:06.387Z,802.4
2018-08-09T00:30:10.592Z,802.44
2018-08-09T00:30:14.780Z,802.46
2018-08-09T00:30:18.979Z,802.43
2018-08-09T00:30:23.284Z,802.45
2018-08-09T00:30:27.489Z,802.42
2018-08-09T00:30:31.574Z,802.37
2018-08-09T00:30:35.770Z,802.46
2018-08-09T00:30:40.075Z,802.46
2018-08-09T00:30:44.167Z,802.48
2018-08-09T00:30:48.372Z,802.41
2018-08-09T00:30:52.572Z,802.47
2018-08-09T00:30:56.769Z,802.48
2018-08-09T00:31:00.982Z,802.47
2018-08-09T00:31:04.972Z,802.48
2018-08-09T00:31:09.282Z,802.46
2018-08-09T00:31:13.474Z,802.5
2018-08-09T00:31:17.458Z,802.48
2018-08-09T00:31:21.649Z,802.5
2018-08-09T00:31:25.744Z,802.51
2018-08-09T00:31:29.838Z,802.49
2018-08-09T00:31:33.817Z,802.51
2018-08-09T00:31:38.123Z,802.53
2018-08-09T00:31:42.211Z,802.51
2018-08-09T00:31:46.518Z,802.51
2018-08-09T00:31:50.605Z,802.47
2018-08-09T00:31:54.797Z,802.45
2018-08-09T00:31:59.003Z,802.44
2018-08-09T00:32:03.357Z,802.52
2018-08-09T00:32:07.558Z,802.47
2018-08-09T00:32:11.754Z,802.49
2018-08-09T00:32:15.955Z,802.52
2018-08-09T00:32:20.259Z,802.52
2018-08-09T00:32:24.347Z,802.5
2018-08-09T00:32:28.433Z,802.52
2018-08-09T00:32:32.731Z,802.51
2018-08-09T00:32:37.035Z,802.5
2018-08-09T00:32:41.346Z,802.46
2018-08-09T00:32:45.643Z,802.51
2018-08-09T00:32:49.736Z,802.49
2018-08-09T00:32:53.936Z,802.49
2018-08-09T00:32:57.819Z,802.48
2018-08-09T00:33:02.123Z,802.47
2018-08-09T00:33:06.316Z,802.52
2018-08-09T00:33:10.512Z,802.48
2018-08-09T00:33:14.613Z,802.48
2018-08-09T00:33:18.806Z,802.44
2018-08-09T00:33:22.889Z,802.49
2018-08-09T00:33:26.975Z,802.5
2018-08-09T00:33:31.171Z,802.48
2018-08-09T00:33:35.361Z,802.51
2018-08-09T00:33:39.661Z,802.48
2018-08-09T00:33:43.645Z,802.47
2018-08-09T00:33:47.747Z,802.51
2018-08-09T00:33:52.045Z,802.48
2018-08-09T00:33:56.352Z,802.5
2018-08-09T00:34:00.445Z,802.48
2018-08-09T00:34:04.741Z,802.42
2018-08-09T00:34:08.937Z,802.45
2018-08-09T00:34:13.029Z,802.38
2018-08-09T00:34:17.226Z,802.44
2018-08-09T00:34:21.419Z,802.46
2018-08-09T00:34:25.621Z,802.38
2018-08-09T00:34:29.709Z,802.47
2018-08-09T00:34:33.697Z,802.45
2018-08-09T00:34:37.680Z,802.44
2018-08-09T00:34:41.878Z,802.42
2018-08-09T00:34:46.088Z,802.41
2018-08-09T00:34:50.385Z,802.43
2018-08-09T00:34:54.596Z,802.43
2018-08-09T00:34:58.791Z,802.39
2018-08-09T00:35:02.877Z,802.39
2018-08-09T00:35:07.086Z,802.4
2018-08-09T00:35:11.395Z,802.37
2018-08-09T00:35:15.699Z,802.39
2018-08-09T00:35:19.896Z,802.38
2018-08-09T00:35:24.086Z,802.41
2018-08-09T00:35:28.389Z,802.35
2018-08-09T00:35:32.687Z,802.36
2018-08-09T00:35:36.880Z,802.36
2018-08-09T00:35:41.080Z,802.38
2018-08-09T00:35:45.165Z,802.33
2018-08-09T00:35:49.256Z,802.35
2018-08-09T00:35:53.448Z,802.36
2018-08-09T00:35:57.643Z,802.28
2018-08-09T00:36:01.846Z,802.34
2018-08-09T00:36:05.935Z,802.32
2018-08-09T00:36:10.021Z,802.3
2018-08-09T00:36:14.329Z,802.34
2018-08-09T00:36:18.432Z,802.27
2018-08-09T00:36:22.735Z,802.3
2018-08-09T00:36:27.037Z,802.27
2018-08-09T00:36:31.333Z,802.25
2018-08-09T00:36:35.531Z,802.31
2018-08-09T00:36:39.726Z,802.27
2018-08-09T00:36:44.026Z,802.26
2018-08-09T00:36:48.336Z,802.3
2018-08-09T00:36:52.444Z,802.28
2018-08-09T00:36:56.660Z,802.26
2018-08-09T00:37:00.747Z,802.23
2018-08-09T00:37:05.205Z,802.19
2018-08-09T00:37:09.407Z,802.26
2018-08-09T00:37:13.716Z,802.29
2018-08-09T00:37:17.913Z,802.23
2018-08-09T00:37:22.005Z,802.22
2018-08-09T00:37:26.193Z,802.18
2018-08-09T00:37:30.388Z,802.21
2018-08-09T00:37:34.695Z,802.19
2018-08-09T00:37:38.884Z,802.21
2018-08-09T00:37:43.082Z,802.2
2018-08-09T00:37:47.289Z,802.17
2018-08-09T00:37:51.482Z,802.15
2018-08-09T00:37:55.837Z,802.16
2018-08-09T00:37:59.934Z,802.16
2018-08-09T00:38:04.026Z,802.07
2018-08-09T00:38:08.121Z,802.14
2018-08-09T00:38:12.213Z,802.11
2018-08-09T00:38:16.518Z,802.1
2018-08-09T00:38:20.607Z,802.13
2018-08-09T00:38:24.808Z,802.1
2018-08-09T00:38:28.895Z,802.07
2018-08-09T00:38:33.197Z,802.08
2018-08-09T00:38:37.390Z,802.07
2018-08-09T00:38:41.520Z,802.05
2018-08-09T00:38:45.715Z,802.07
2018-08-09T00:38:49.910Z,802.02
2018-08-09T00:38:54.216Z,802.04
2018-08-09T00:38:58.302Z,802.02
2018-08-09T00:39:02.495Z,802.01
2018-08-09T00:39:06.633Z,802.03
2018-08-09T00:39:10.928Z,802
2018-08-09T00:39:15.126Z,801.97
2018-08-09T00:39:19.445Z,801.98
2018-08-09T00:39:23.752Z,801.9
2018-08-09T00:39:27.628Z,801.92
2018-08-09T00:39:31.718Z,801.93
2018-08-09T00:39:36.022Z,801.92
2018-08-09T00:39:40.106Z,801.91
2018-08-09T00:39:44.295Z,801.87
2018-08-09T00:39:48.488Z,801.88
2018-08-09T00:39:52.786Z,801.88
2018-08-09T00:39:56.980Z,801.87
2018-08-09T00:40:01.184Z,801.84
2018-08-09T00:40:05.179Z,801.85
2018-08-09T00:40:09.478Z,801.82
2018-08-09T00:40:13.668Z,801.81
2018-08-09T00:40:17.875Z,801.82
2018-08-09T00:40:22.070Z,801.81
2018-08-09T00:40:26.267Z,801.8
2018-08-09T00:40:30.569Z,801.79
2018-08-09T00:40:34.865Z,801.76
2018-08-09T00:40:39.116Z,801.78
2018-08-09T00:40:43.417Z,801.73
2018-08-09T00:40:47.609Z,801.76
2018-08-09T00:40:51.915Z,801.7
2018-08-09T00:40:56.120Z,801.71
2018-08-09T00:41:00.108Z,801.71
2018-08-09T00:41:04.215Z,801.7
2018-08-09T00:41:08.197Z,801.68
2018-08-09T00:41:12.508Z,801.66
2018-08-09T00:41:16.593Z,801.65
2018-08-09T00:41:20.916Z,801.63
2018-08-09T00:41:25.228Z,801.62
2018-08-09T00:41:29.537Z,801.65
2018-08-09T00:41:33.846Z,801.61
2018-08-09T00:41:37.936Z,801.6
2018-08-09T00:41:42.301Z,801.59
2018-08-09T00:41:46.603Z,801.54
2018-08-09T00:41:50.803Z,801.5
2018-08-09T00:41:54.996Z,801.5
2018-08-09T00:41:59.308Z,801.53
2018-08-09T00:42:03.399Z,801.56
2018-08-09T00:42:07.702Z,801.53
2018-08-09T00:42:11.898Z,801.48
2018-08-09T00:42:15.901Z,801.48
2018-08-09T00:42:20.003Z,801.47
2018-08-09T00:42:24.206Z,801.43
2018-08-09T00:42:28.396Z,801.42
2018-08-09T00:42:32.595Z,801.44
2018-08-09T00:42:36.894Z,801.41
2018-08-09T00:42:40.994Z,801.35
2018-08-09T00:42:45.084Z,801.36
2018-08-09T00:42:49.296Z,801.33
2018-08-09T00:42:53.620Z,801.35
2018-08-09T00:42:57.962Z,801.32
2018-08-09T00:43:02.049Z,801.32
2018-08-09T00:43:06.033Z,801.25
2018-08-09T00:43:10.228Z,801.26
2018-08-09T00:43:14.316Z,801.25
2018-08-09T00:43:18.627Z,801.25
2018-08-09T00:43:22.748Z,801.22
2018-08-09T00:43:26.842Z,801.19
2018-08-09T00:43:31.056Z,801.21
2018-08-09T00:43:35.365Z,801.16
2018-08-09T00:43:39.453Z,801.15
2018-08-09T00:43:43.761Z,801.13
2018-08-09T00:43:47.957Z,801.11
2018-08-09T00:43:52.051Z,801.14
2018-08-09T00:43:56.244Z,801.1
2018-08-09T00:44:00.560Z,801.1
2018-08-09T00:44:04.848Z,801.1
2018-08-09T00:44:08.937Z,801.1
2018-08-09T00:44:13.237Z,801.05
2018-08-09T00:44:17.432Z,801.06
2018-08-09T00:44:21.414Z,801.02
2018-08-09T00:44:25.605Z,801
2018-08-09T00:44:29.593Z,801.02
2018-08-09T00:44:33.683Z,800.98
2018-08-09T00:44:37.789Z,800.98
2018-08-09T00:44:41.990Z,800.97
2018-08-09T00:44:46.188Z,800.93
2018-08-09T00:44:50.284Z,800.92
2018-08-09T00:44:54.478Z,800.91
2018-08-09T00:44:58.781Z,800.94
2018-08-09T00:45:02.772Z,800.93
2018-08-09T00:45:07.081Z,800.93
2018-08-09T00:45:11.276Z,800.93
2018-08-09T00:45:15.479Z,800.86
2018-08-09T00:45:19.565Z,800.9
2018-08-09T00:45:23.658Z,800.89
2018-08-09T00:45:27.864Z,800.88
2018-08-09T00:45:32.058Z,800.84
2018-08-09T00:45:36.359Z,800.86
2018-08-09T00:45:40.563Z,800.82
2018-08-09T00:45:44.766Z,800.82
2018-08-09T00:45:48.849Z,800.8
2018-08-09T00:45:53.153Z,800.79
2018-08-09T00:45:57.243Z,800.77
2018-08-09T00:46:01.333Z,800.8
2018-08-09T00:46:05.315Z,800.75
2018-08-09T00:46:09.508Z,800.73
2018-08-09T00:46:13.701Z,800.75
2018-08-09T00:46:17.899Z,800.75
2018-08-09T00:46:22.092Z,800.71
2018-08-09T00:46:26.285Z,800.68
2018-08-09T00:46:30.373Z,800.7
2018-08-09T00:46:34.568Z,800.7
2018-08-09T00:46:38.881Z,800.7
2018-08-09T00:46:43.074Z,800.62
2018-08-09T00:46:47.163Z,800.61
2018-08-09T00:46:51.355Z,800.62
2018-08-09T00:46:55.545Z,800.59
2018-08-09T00:46:59.641Z,800.62
2018-08-09T00:47:03.739Z,800.6
2018-08-09T00:47:07.930Z,800.6
2018-08-09T00:47:12.236Z,800.6
2018-08-09T00:47:16.434Z,800.55
2018-08-09T00:47:20.636Z,800.55
2018-08-09T00:47:24.724Z,800.5
2018-08-09T00:47:28.914Z,800.52
2018-08-09T00:47:33.111Z,800.51
2018-08-09T00:47:37.413Z,800.5
2018-08-09T00:47:41.516Z,800.49
2018-08-09T00:47:45.819Z,800.47
2018-08-09T00:47:50.113Z,800.44
2018-08-09T00:47:54.422Z,800.46
2018-08-09T00:47:58.680Z,800.45
2018-08-09T00:48:02.939Z,800.46
2018-08-09T00:48:07.027Z,800.41
2018-08-09T00:48:11.342Z,800.37
2018-08-09T00:48:15.533Z,800.4
2018-08-09T00:48:19.522Z,800.34
2018-08-09T00:48:23.863Z,800.37
2018-08-09T00:48:28.169Z,800.34
2018-08-09T00:48:32.258Z,800.33
2018-08-09T00:48:36.450Z,800.33
2018-08-09T00:48:40.647Z,800.32
2018-08-09T00:48:44.948Z,800.31
2018-08-09T00:48:49.164Z,800.3
2018-08-09T00:48:53.257Z,800.31
2018-08-09T00:48:57.146Z,800.3
2018-08-09T00:49:01.460Z,800.28
2018-08-09T00:49:05.672Z,800.25
2018-08-09T00:49:09.867Z,800.26
2018-08-09T00:49:14.167Z,800.22
2018-08-09T00:49:18.469Z,800.2
2018-08-09T00:49:22.458Z,800.22
2018-08-09T00:49:26.447Z,800.21
2018-08-09T00:49:30.746Z,800.2
2018-08-09T00:49:34.833Z,800.16
2018-08-09T00:49:39.026Z,800.14
2018-08-09T00:49:43.328Z,800.17
2018-08-09T00:49:47.531Z,800.16
2018-08-09T00:49:51.828Z,800.15
2018-08-09T00:49:56.041Z,800.13
2018-08-09T00:50:00.234Z,800.1
2018-08-09T00:50:04.449Z,800.11
2018-08-09T00:50:08.752Z,800.11
2018-08-09T00:50:12.953Z,800.11
2018-08-09T00:50:17.050Z,800.08
2018-08-09T00:50:21.252Z,800.05
2018-08-09T00:50:25.239Z,800.07
2018-08-09T00:50:29.446Z,800.07
2018-08-09T00:50:33.644Z,800.06
2018-08-09T00:50:37.845Z,800.03
2018-08-09T00:50:42.040Z,800.06
2018-08-09T00:50:46.348Z,800.02
2018-08-09T00:50:50.589Z,800.04
2018-08-09T00:50:54.783Z,800.03
2018-08-09T00:50:59.087Z,799.99
2018-08-09T00:51:03.329Z,800.01
2018-08-09T00:51:07.528Z,799.96
2018-08-09T00:51:11.728Z,799.99
2018-08-09T00:51:16.032Z,799.97
2018-08-09T00:51:20.227Z,800
2018-08-09T00:51:24.359Z,799.99
2018-08-09T00:51:28.240Z,799.99
2018-08-09T00:51:32.330Z,799.96
2018-08-09T00:51:36.633Z,799.97
2018-08-09T00:51:40.855Z,799.94
2018-08-09T00:51:45.170Z,799.94
2018-08-09T00:51:49.366Z,799.95
2018-08-09T00:51:53.348Z,799.95
2018-08-09T00:51:57.652Z,799.92
2018-08-09T00:52:01.966Z,799.95
2018-08-09T00:52:06.008Z,799.93
2018-08-09T00:52:10.215Z,799.91
2018-08-09T00:52:14.306Z,799.91
2018-08-09T00:52:18.619Z,799.93
2018-08-09T00:52:22.707Z,799.93
2018-08-09T00:52:26.904Z,799.92
2018-08-09T00:52:30.990Z,799.91
2018-08-09T00:52:35.328Z,799.9
2018-08-09T00:52:39.419Z,799.91
2018-08-09T00:52:43.510Z,799.92
2018-08-09T00:52:47.815Z,799.91
2018-08-09T00:52:52.118Z,799.89
2018-08-09T00:52:56.413Z,799.88
2018-08-09T00:53:00.767Z,799.88
2018-08-09T00:53:04.968Z,799.87
2018-08-09T00:53:09.271Z,799.86
2018-08-09T00:53:13.362Z,799.88
2018-08-09T00:53:17.672Z,799.86
2018-08-09T00:53:21.873Z,799.86
2018-08-09T00:53:26.170Z,799.84
2018-08-09T00:53:30.266Z,799.84
2018-08-09T00:53:34.471Z,799.86
2018-08-09T00:53:38.773Z,799.86